sensor_id;sensor_type;location;lat;lon;timestamp;P1;durP1;ratioP1;P2;durP2;ratioP2
43431;SDS011;40365;41.866;21.942;2022-07-06T00:01:32;7.60;;;4.07;;
43431;SDS011;40365;41.866;21.942;2022-07-06T00:04:04;7.47;;;3.80;;
43431;SDS011;40365;41.866;21.942;2022-07-06T00:06:54;7.78;;;3.33;;
43431;SDS011;40365;41.866;21.942;2022-07-06T00:11:00;5.45;;;3.28;;
43431;SDS011;40365;41.866;21.942;2022-07-06T00:13:27;6.18;;;3.40;;
43431;SDS011;40365;41.866;21.942;2022-07-06T00:15:53;5.70;;;3.90;;
43431;SDS011;40365;41.866;21.942;2022-07-06T00:20:43;9.00;;;4.82;;
43431;SDS011;40365;41.866;21.942;2022-07-06T00:23:09;7.93;;;5.13;;
43431;SDS011;40365;41.866;21.942;2022-07-06T00:26:27;8.25;;;4.90;;
43431;SDS011;40365;41.866;21.942;2022-07-06T00:28:53;8.95;;;5.38;;
43431;SDS011;40365;41.866;21.942;2022-07-06T00:32:52;9.32;;;4.57;;
43431;SDS011;40365;41.866;21.942;2022-07-06T00:35:18;9.25;;;4.80;;
43431;SDS011;40365;41.866;21.942;2022-07-06T00:37:44;8.82;;;4.40;;
43431;SDS011;40365;41.866;21.942;2022-07-06T00:42:06;8.38;;;5.03;;
43431;SDS011;40365;41.866;21.942;2022-07-06T00:45:50;8.32;;;4.30;;
43431;SDS011;40365;41.866;21.942;2022-07-06T00:51:41;7.18;;;4.00;;
43431;SDS011;40365;41.866;21.942;2022-07-06T00:56:23;7.70;;;4.30;;
43431;SDS011;40365;41.866;21.942;2022-07-06T00:58:49;8.48;;;4.03;;
43431;SDS011;40365;41.866;21.942;2022-07-06T01:01:15;10.88;;;4.80;;
43431;SDS011;40365;41.866;21.942;2022-07-06T01:06:22;8.43;;;4.20;;
43431;SDS011;40365;41.866;21.942;2022-07-06T01:11:18;6.95;;;4.10;;
43431;SDS011;40365;41.866;21.942;2022-07-06T01:13:44;11.18;;;4.30;;
43431;SDS011;40365;41.866;21.942;2022-07-06T01:18:22;6.90;;;4.05;;
43431;SDS011;40365;41.866;21.942;2022-07-06T01:20:48;7.75;;;4.75;;
43431;SDS011;40365;41.866;21.942;2022-07-06T01:23:14;8.43;;;3.85;;
43431;SDS011;40365;41.866;21.942;2022-07-06T01:27:01;6.38;;;3.95;;
43431;SDS011;40365;41.866;21.942;2022-07-06T01:30:24;9.73;;;4.50;;
43431;SDS011;40365;41.866;21.942;2022-07-06T01:33:44;9.05;;;4.80;;
43431;SDS011;40365;41.866;21.942;2022-07-06T01:36:31;8.40;;;4.35;;
43431;SDS011;40365;41.866;21.942;2022-07-06T01:38:57;7.28;;;3.80;;
43431;SDS011;40365;41.866;21.942;2022-07-06T01:41:23;7.05;;;4.03;;
43431;SDS011;40365;41.866;21.942;2022-07-06T01:44:12;8.77;;;4.00;;
43431;SDS011;40365;41.866;21.942;2022-07-06T01:46:39;10.85;;;3.75;;
43431;SDS011;40365;41.866;21.942;2022-07-06T01:49:05;7.53;;;4.22;;
43431;SDS011;40365;41.866;21.942;2022-07-06T01:53:38;9.85;;;3.80;;
43431;SDS011;40365;41.866;21.942;2022-07-06T01:56:45;7.05;;;3.90;;
43431;SDS011;40365;41.866;21.942;2022-07-06T01:59:11;8.25;;;3.63;;
43431;SDS011;40365;41.866;21.942;2022-07-06T02:01:37;10.45;;;3.80;;
43431;SDS011;40365;41.866;21.942;2022-07-06T02:04:03;6.70;;;3.40;;
43431;SDS011;40365;41.866;21.942;2022-07-06T02:06:44;6.03;;;3.30;;
43431;SDS011;40365;41.866;21.942;2022-07-06T02:09:11;7.90;;;3.33;;
43431;SDS011;40365;41.866;21.942;2022-07-06T02:11:37;7.47;;;3.60;;
43431;SDS011;40365;41.866;21.942;2022-07-06T02:14:03;7.97;;;3.78;;
43431;SDS011;40365;41.866;21.942;2022-07-06T02:17:31;7.35;;;3.70;;
43431;SDS011;40365;41.866;21.942;2022-07-06T02:19:58;6.72;;;3.92;;
43431;SDS011;40365;41.866;21.942;2022-07-06T02:22:24;10.77;;;4.20;;
43431;SDS011;40365;41.866;21.942;2022-07-06T02:24:50;9.18;;;4.13;;
43431;SDS011;40365;41.866;21.942;2022-07-06T02:28:21;8.27;;;3.55;;
43431;SDS011;40365;41.866;21.942;2022-07-06T02:31:27;7.50;;;3.83;;
43431;SDS011;40365;41.866;21.942;2022-07-06T02:33:53;6.60;;;3.88;;
43431;SDS011;40365;41.866;21.942;2022-07-06T02:36:19;7.05;;;4.30;;
43431;SDS011;40365;41.866;21.942;2022-07-06T02:38:45;9.48;;;4.32;;
43431;SDS011;40365;41.866;21.942;2022-07-06T02:41:11;8.45;;;4.75;;
43431;SDS011;40365;41.866;21.942;2022-07-06T02:43:37;7.07;;;3.80;;
43431;SDS011;40365;41.866;21.942;2022-07-06T02:49:04;7.40;;;3.88;;
43431;SDS011;40365;41.866;21.942;2022-07-06T02:51:30;7.57;;;4.18;;
43431;SDS011;40365;41.866;21.942;2022-07-06T02:53:56;8.10;;;3.67;;
43431;SDS011;40365;41.866;21.942;2022-07-06T02:56:22;7.90;;;4.07;;
43431;SDS011;40365;41.866;21.942;2022-07-06T03:00:05;7.47;;;3.58;;
43431;SDS011;40365;41.866;21.942;2022-07-06T03:04:29;8.38;;;3.60;;
43431;SDS011;40365;41.866;21.942;2022-07-06T03:06:55;6.85;;;3.80;;
43431;SDS011;40365;41.866;21.942;2022-07-06T03:09:21;6.80;;;3.90;;
43431;SDS011;40365;41.866;21.942;2022-07-06T03:11:47;9.52;;;3.25;;
43431;SDS011;40365;41.866;21.942;2022-07-06T03:14:13;5.72;;;3.33;;
43431;SDS011;40365;41.866;21.942;2022-07-06T03:17:43;6.47;;;3.05;;
43431;SDS011;40365;41.866;21.942;2022-07-06T03:20:09;5.78;;;2.95;;
43431;SDS011;40365;41.866;21.942;2022-07-06T03:22:36;9.05;;;3.33;;
43431;SDS011;40365;41.866;21.942;2022-07-06T03:25:02;11.45;;;3.78;;
43431;SDS011;40365;41.866;21.942;2022-07-06T03:28:22;8.98;;;3.95;;
43431;SDS011;40365;41.866;21.942;2022-07-06T03:30:48;7.93;;;3.95;;
43431;SDS011;40365;41.866;21.942;2022-07-06T03:33:14;7.53;;;3.70;;
43431;SDS011;40365;41.866;21.942;2022-07-06T03:36:11;8.75;;;4.03;;
43431;SDS011;40365;41.866;21.942;2022-07-06T03:38:37;8.75;;;3.90;;
43431;SDS011;40365;41.866;21.942;2022-07-06T03:41:03;10.57;;;4.88;;
43431;SDS011;40365;41.866;21.942;2022-07-06T03:45:28;6.80;;;3.40;;
43431;SDS011;40365;41.866;21.942;2022-07-06T03:51:17;9.13;;;3.83;;
43431;SDS011;40365;41.866;21.942;2022-07-06T03:53:43;7.20;;;3.53;;
43431;SDS011;40365;41.866;21.942;2022-07-06T03:56:19;5.60;;;3.53;;
43431;SDS011;40365;41.866;21.942;2022-07-06T03:58:55;9.80;;;4.43;;
43431;SDS011;40365;41.866;21.942;2022-07-06T04:01:21;10.32;;;3.85;;
43431;SDS011;40365;41.866;21.942;2022-07-06T04:09:44;8.40;;;3.67;;
43431;SDS011;40365;41.866;21.942;2022-07-06T04:12:10;7.03;;;3.83;;
43431;SDS011;40365;41.866;21.942;2022-07-06T04:17:49;5.88;;;3.10;;
43431;SDS011;40365;41.866;21.942;2022-07-06T04:20:22;5.28;;;2.80;;
43431;SDS011;40365;41.866;21.942;2022-07-06T04:22:48;8.52;;;3.88;;
43431;SDS011;40365;41.866;21.942;2022-07-06T04:25:15;6.50;;;3.92;;
43431;SDS011;40365;41.866;21.942;2022-07-06T04:27:41;6.95;;;3.80;;
43431;SDS011;40365;41.866;21.942;2022-07-06T04:30:08;9.27;;;3.42;;
43431;SDS011;40365;41.866;21.942;2022-07-06T04:32:34;9.93;;;3.85;;
43431;SDS011;40365;41.866;21.942;2022-07-06T04:35:01;6.93;;;3.28;;
43431;SDS011;40365;41.866;21.942;2022-07-06T04:39:39;7.30;;;4.28;;
43431;SDS011;40365;41.866;21.942;2022-07-06T04:42:29;6.95;;;3.78;;
43431;SDS011;40365;41.866;21.942;2022-07-06T04:46:49;6.25;;;3.53;;
43431;SDS011;40365;41.866;21.942;2022-07-06T04:49:15;8.35;;;3.67;;
43431;SDS011;40365;41.866;21.942;2022-07-06T04:51:41;6.85;;;3.67;;
43431;SDS011;40365;41.866;21.942;2022-07-06T04:59:02;8.60;;;3.35;;
43431;SDS011;40365;41.866;21.942;2022-07-06T05:01:28;10.05;;;3.97;;
43431;SDS011;40365;41.866;21.942;2022-07-06T05:05:12;7.25;;;3.55;;
43431;SDS011;40365;41.866;21.942;2022-07-06T05:07:38;5.65;;;3.42;;
43431;SDS011;40365;41.866;21.942;2022-07-06T05:11:49;8.43;;;3.42;;
43431;SDS011;40365;41.866;21.942;2022-07-06T05:14:15;6.13;;;3.38;;
43431;SDS011;40365;41.866;21.942;2022-07-06T05:17:39;8.82;;;4.47;;
43431;SDS011;40365;41.866;21.942;2022-07-06T05:20:05;10.23;;;5.60;;
43431;SDS011;40365;41.866;21.942;2022-07-06T05:22:32;13.23;;;7.28;;
43431;SDS011;40365;41.866;21.942;2022-07-06T05:25:07;8.15;;;4.80;;
43431;SDS011;40365;41.866;21.942;2022-07-06T05:27:33;8.75;;;4.95;;
43431;SDS011;40365;41.866;21.942;2022-07-06T05:29:59;7.70;;;3.95;;
43431;SDS011;40365;41.866;21.942;2022-07-06T05:32:26;5.70;;;2.90;;
43431;SDS011;40365;41.866;21.942;2022-07-06T05:34:52;7.18;;;3.28;;
43431;SDS011;40365;41.866;21.942;2022-07-06T05:37:18;6.57;;;3.45;;
43431;SDS011;40365;41.866;21.942;2022-07-06T05:39:44;9.80;;;3.30;;
43431;SDS011;40365;41.866;21.942;2022-07-06T05:46:09;6.95;;;3.25;;
43431;SDS011;40365;41.866;21.942;2022-07-06T05:48:35;7.15;;;3.17;;
43431;SDS011;40365;41.866;21.942;2022-07-06T05:52:58;7.35;;;3.50;;
43431;SDS011;40365;41.866;21.942;2022-07-06T05:55:24;3.95;;;3.00;;
43431;SDS011;40365;41.866;21.942;2022-07-06T05:57:50;7.35;;;3.42;;
43431;SDS011;40365;41.866;21.942;2022-07-06T06:00:19;7.20;;;3.47;;
43431;SDS011;40365;41.866;21.942;2022-07-06T06:02:45;7.90;;;2.85;;
43431;SDS011;40365;41.866;21.942;2022-07-06T06:07:14;6.60;;;3.47;;
43431;SDS011;40365;41.866;21.942;2022-07-06T06:11:41;9.05;;;3.08;;
43431;SDS011;40365;41.866;21.942;2022-07-06T06:15:02;9.07;;;3.53;;
43431;SDS011;40365;41.866;21.942;2022-07-06T06:17:28;5.45;;;2.90;;
43431;SDS011;40365;41.866;21.942;2022-07-06T06:21:34;8.95;;;3.38;;
43431;SDS011;40365;41.866;21.942;2022-07-06T06:25:47;6.78;;;3.13;;
43431;SDS011;40365;41.866;21.942;2022-07-06T06:28:13;6.20;;;3.42;;
43431;SDS011;40365;41.866;21.942;2022-07-06T06:32:43;5.88;;;3.42;;
43431;SDS011;40365;41.866;21.942;2022-07-06T06:35:09;8.63;;;3.75;;
43431;SDS011;40365;41.866;21.942;2022-07-06T06:38:59;6.90;;;3.88;;
43431;SDS011;40365;41.866;21.942;2022-07-06T06:42:38;8.95;;;3.55;;
43431;SDS011;40365;41.866;21.942;2022-07-06T06:45:04;7.43;;;3.50;;
43431;SDS011;40365;41.866;21.942;2022-07-06T06:47:31;6.28;;;3.40;;
43431;SDS011;40365;41.866;21.942;2022-07-06T06:49:57;7.97;;;3.22;;
43431;SDS011;40365;41.866;21.942;2022-07-06T06:52:23;7.22;;;3.55;;
43431;SDS011;40365;41.866;21.942;2022-07-06T06:54:49;9.50;;;3.42;;
43431;SDS011;40365;41.866;21.942;2022-07-06T06:59:09;7.50;;;3.90;;
43431;SDS011;40365;41.866;21.942;2022-07-06T07:04:31;8.05;;;3.78;;
43431;SDS011;40365;41.866;21.942;2022-07-06T07:06:57;6.30;;;3.33;;
43431;SDS011;40365;41.866;21.942;2022-07-06T07:09:23;7.18;;;3.72;;
43431;SDS011;40365;41.866;21.942;2022-07-06T07:13:52;10.55;;;3.72;;
43431;SDS011;40365;41.866;21.942;2022-07-06T07:16:18;5.20;;;2.97;;
43431;SDS011;40365;41.866;21.942;2022-07-06T07:18:44;6.55;;;3.58;;
43431;SDS011;40365;41.866;21.942;2022-07-06T07:21:11;6.93;;;3.55;;
43431;SDS011;40365;41.866;21.942;2022-07-06T07:23:37;5.95;;;3.50;;
43431;SDS011;40365;41.866;21.942;2022-07-06T07:26:03;9.43;;;3.95;;
43431;SDS011;40365;41.866;21.942;2022-07-06T07:28:29;7.15;;;3.72;;
43431;SDS011;40365;41.866;21.942;2022-07-06T07:30:55;10.05;;;3.80;;
43431;SDS011;40365;41.866;21.942;2022-07-06T07:33:21;9.13;;;3.38;;
43431;SDS011;40365;41.866;21.942;2022-07-06T07:35:48;7.72;;;3.97;;
43431;SDS011;40365;41.866;21.942;2022-07-06T07:39:32;7.85;;;3.53;;
43431;SDS011;40365;41.866;21.942;2022-07-06T07:44:09;6.75;;;3.67;;
43431;SDS011;40365;41.866;21.942;2022-07-06T07:48:04;5.70;;;3.25;;
43431;SDS011;40365;41.866;21.942;2022-07-06T07:51:55;7.78;;;3.60;;
43431;SDS011;40365;41.866;21.942;2022-07-06T07:54:21;5.68;;;3.60;;
43431;SDS011;40365;41.866;21.942;2022-07-06T07:56:47;6.13;;;3.97;;
43431;SDS011;40365;41.866;21.942;2022-07-06T07:59:14;6.35;;;3.45;;
43431;SDS011;40365;41.866;21.942;2022-07-06T08:01:40;6.10;;;3.60;;
43431;SDS011;40365;41.866;21.942;2022-07-06T08:05:30;8.20;;;3.58;;
43431;SDS011;40365;41.866;21.942;2022-07-06T08:07:56;6.47;;;3.67;;
43431;SDS011;40365;41.866;21.942;2022-07-06T08:11:18;5.50;;;3.50;;
43431;SDS011;40365;41.866;21.942;2022-07-06T08:16:50;5.57;;;3.35;;
43431;SDS011;40365;41.866;21.942;2022-07-06T08:19:16;6.45;;;4.10;;
43431;SDS011;40365;41.866;21.942;2022-07-06T08:21:42;7.45;;;3.83;;
43431;SDS011;40365;41.866;21.942;2022-07-06T08:24:08;6.25;;;3.22;;
43431;SDS011;40365;41.866;21.942;2022-07-06T08:26:35;5.95;;;3.42;;
43431;SDS011;40365;41.866;21.942;2022-07-06T08:29:01;7.75;;;3.70;;
43431;SDS011;40365;41.866;21.942;2022-07-06T08:31:27;6.32;;;3.83;;
43431;SDS011;40365;41.866;21.942;2022-07-06T08:33:53;4.82;;;3.55;;
43431;SDS011;40365;41.866;21.942;2022-07-06T08:38:55;6.32;;;3.47;;
43431;SDS011;40365;41.866;21.942;2022-07-06T08:41:21;8.40;;;3.78;;
43431;SDS011;40365;41.866;21.942;2022-07-06T08:43:49;9.05;;;3.63;;
43431;SDS011;40365;41.866;21.942;2022-07-06T08:46:16;7.70;;;3.55;;
43431;SDS011;40365;41.866;21.942;2022-07-06T08:48:42;6.72;;;4.00;;
43431;SDS011;40365;41.866;21.942;2022-07-06T08:51:08;6.22;;;3.53;;
43431;SDS011;40365;41.866;21.942;2022-07-06T08:53:35;6.80;;;4.18;;
43431;SDS011;40365;41.866;21.942;2022-07-06T08:56:02;6.00;;;3.80;;
43431;SDS011;40365;41.866;21.942;2022-07-06T08:58:28;10.55;;;3.78;;
43431;SDS011;40365;41.866;21.942;2022-07-06T09:02:02;6.32;;;3.58;;
43431;SDS011;40365;41.866;21.942;2022-07-06T09:06:01;6.20;;;3.33;;
43431;SDS011;40365;41.866;21.942;2022-07-06T09:08:27;6.53;;;3.70;;
43431;SDS011;40365;41.866;21.942;2022-07-06T09:10:55;7.40;;;4.60;;
43431;SDS011;40365;41.866;21.942;2022-07-06T09:13:21;5.55;;;3.55;;
43431;SDS011;40365;41.866;21.942;2022-07-06T09:15:47;6.43;;;3.75;;
43431;SDS011;40365;41.866;21.942;2022-07-06T09:21:03;1070.20;;;715.97;;
43431;SDS011;40365;41.866;21.942;2022-07-06T09:23:30;1081.43;;;782.13;;
43431;SDS011;40365;41.866;21.942;2022-07-06T09:25:56;454.75;;;301.58;;
43431;SDS011;40365;41.866;21.942;2022-07-06T09:28:22;6.47;;;4.10;;
43431;SDS011;40365;41.866;21.942;2022-07-06T09:30:48;7.18;;;3.67;;
43431;SDS011;40365;41.866;21.942;2022-07-06T09:33:17;6.78;;;3.60;;
43431;SDS011;40365;41.866;21.942;2022-07-06T09:35:43;5.88;;;3.80;;
43431;SDS011;40365;41.866;21.942;2022-07-06T09:38:13;5.93;;;3.72;;
43431;SDS011;40365;41.866;21.942;2022-07-06T09:42:48;5.82;;;3.47;;
43431;SDS011;40365;41.866;21.942;2022-07-06T09:45:52;5.13;;;3.38;;
43431;SDS011;40365;41.866;21.942;2022-07-06T09:48:25;8.48;;;4.00;;
43431;SDS011;40365;41.866;21.942;2022-07-06T09:50:56;6.40;;;3.42;;
43431;SDS011;40365;41.866;21.942;2022-07-06T09:53:23;9.02;;;3.88;;
43431;SDS011;40365;41.866;21.942;2022-07-06T09:55:50;6.90;;;3.20;;
43431;SDS011;40365;41.866;21.942;2022-07-06T09:58:17;6.15;;;3.67;;
43431;SDS011;40365;41.866;21.942;2022-07-06T10:00:44;8.75;;;4.00;;
43431;SDS011;40365;41.866;21.942;2022-07-06T10:03:10;6.03;;;3.42;;
43431;SDS011;40365;41.866;21.942;2022-07-06T10:05:38;6.68;;;4.18;;
43431;SDS011;40365;41.866;21.942;2022-07-06T10:08:05;8.35;;;4.13;;
43431;SDS011;40365;41.866;21.942;2022-07-06T10:10:32;6.05;;;3.70;;
43431;SDS011;40365;41.866;21.942;2022-07-06T10:14:57;6.63;;;3.65;;
43431;SDS011;40365;41.866;21.942;2022-07-06T10:17:23;5.72;;;3.70;;
43431;SDS011;40365;41.866;21.942;2022-07-06T10:19:50;6.10;;;3.25;;
43431;SDS011;40365;41.866;21.942;2022-07-06T10:22:17;7.43;;;4.18;;
43431;SDS011;40365;41.866;21.942;2022-07-06T10:24:43;6.07;;;3.70;;
43431;SDS011;40365;41.866;21.942;2022-07-06T10:27:10;8.50;;;4.03;;
43431;SDS011;40365;41.866;21.942;2022-07-06T10:29:36;8.45;;;3.72;;
43431;SDS011;40365;41.866;21.942;2022-07-06T10:32:02;6.78;;;3.42;;
43431;SDS011;40365;41.866;21.942;2022-07-06T10:34:29;6.93;;;4.28;;
43431;SDS011;40365;41.866;21.942;2022-07-06T10:36:55;5.47;;;3.38;;
43431;SDS011;40365;41.866;21.942;2022-07-06T10:42:42;7.50;;;3.50;;
43431;SDS011;40365;41.866;21.942;2022-07-06T10:45:08;9.48;;;6.30;;
43431;SDS011;40365;41.866;21.942;2022-07-06T10:47:35;8.73;;;5.50;;
43431;SDS011;40365;41.866;21.942;2022-07-06T10:50:05;7.45;;;4.07;;
43431;SDS011;40365;41.866;21.942;2022-07-06T10:57:54;7.30;;;3.55;;
43431;SDS011;40365;41.866;21.942;2022-07-06T11:00:21;5.97;;;3.50;;
43431;SDS011;40365;41.866;21.942;2022-07-06T11:02:47;5.72;;;3.38;;
43431;SDS011;40365;41.866;21.942;2022-07-06T11:08:00;6.47;;;3.63;;
43431;SDS011;40365;41.866;21.942;2022-07-06T11:10:26;5.00;;;3.20;;
43431;SDS011;40365;41.866;21.942;2022-07-06T11:12:59;6.32;;;3.30;;
43431;SDS011;40365;41.866;21.942;2022-07-06T11:18:11;8.82;;;4.05;;
43431;SDS011;40365;41.866;21.942;2022-07-06T11:20:37;8.48;;;3.95;;
43431;SDS011;40365;41.866;21.942;2022-07-06T11:23:04;6.40;;;3.85;;
43431;SDS011;40365;41.866;21.942;2022-07-06T11:25:30;5.97;;;3.95;;
43431;SDS011;40365;41.866;21.942;2022-07-06T11:27:56;8.20;;;4.05;;
43431;SDS011;40365;41.866;21.942;2022-07-06T11:30:22;8.00;;;3.40;;
43431;SDS011;40365;41.866;21.942;2022-07-06T11:32:49;8.57;;;4.32;;
43431;SDS011;40365;41.866;21.942;2022-07-06T11:35:24;6.32;;;3.55;;
43431;SDS011;40365;41.866;21.942;2022-07-06T11:37:51;5.53;;;3.55;;
43431;SDS011;40365;41.866;21.942;2022-07-06T11:40:17;7.35;;;3.42;;
43431;SDS011;40365;41.866;21.942;2022-07-06T11:42:53;7.32;;;3.92;;
43431;SDS011;40365;41.866;21.942;2022-07-06T11:45:26;5.90;;;3.40;;
43431;SDS011;40365;41.866;21.942;2022-07-06T11:48:08;6.47;;;4.10;;
43431;SDS011;40365;41.866;21.942;2022-07-06T11:50:35;5.25;;;3.22;;
43431;SDS011;40365;41.866;21.942;2022-07-06T11:53:01;5.65;;;3.30;;
43431;SDS011;40365;41.866;21.942;2022-07-06T11:55:28;6.25;;;4.05;;
43431;SDS011;40365;41.866;21.942;2022-07-06T11:57:54;6.13;;;3.35;;
43431;SDS011;40365;41.866;21.942;2022-07-06T12:00:22;4.38;;;3.33;;
43431;SDS011;40365;41.866;21.942;2022-07-06T12:03:00;5.88;;;3.55;;
43431;SDS011;40365;41.866;21.942;2022-07-06T12:05:30;7.28;;;3.80;;
43431;SDS011;40365;41.866;21.942;2022-07-06T12:08:08;9.40;;;3.95;;
43431;SDS011;40365;41.866;21.942;2022-07-06T12:10:34;8.23;;;3.80;;
43431;SDS011;40365;41.866;21.942;2022-07-06T12:13:03;5.95;;;3.65;;
43431;SDS011;40365;41.866;21.942;2022-07-06T12:15:29;6.22;;;3.33;;
43431;SDS011;40365;41.866;21.942;2022-07-06T12:17:55;5.68;;;3.33;;
43431;SDS011;40365;41.866;21.942;2022-07-06T12:20:21;6.38;;;3.88;;
43431;SDS011;40365;41.866;21.942;2022-07-06T12:22:49;4.82;;;3.38;;
43431;SDS011;40365;41.866;21.942;2022-07-06T12:25:31;4.97;;;3.42;;
43431;SDS011;40365;41.866;21.942;2022-07-06T12:27:57;6.35;;;3.45;;
43431;SDS011;40365;41.866;21.942;2022-07-06T12:30:23;5.43;;;3.45;;
43431;SDS011;40365;41.866;21.942;2022-07-06T12:35:34;6.00;;;3.75;;
43431;SDS011;40365;41.866;21.942;2022-07-06T12:38:00;7.25;;;4.28;;
43431;SDS011;40365;41.866;21.942;2022-07-06T12:40:27;6.20;;;4.03;;
43431;SDS011;40365;41.866;21.942;2022-07-06T12:42:53;7.40;;;3.95;;
43431;SDS011;40365;41.866;21.942;2022-07-06T12:45:19;5.30;;;3.50;;
43431;SDS011;40365;41.866;21.942;2022-07-06T12:48:02;4.95;;;3.22;;
43431;SDS011;40365;41.866;21.942;2022-07-06T12:50:33;8.70;;;3.50;;
43431;SDS011;40365;41.866;21.942;2022-07-06T12:52:59;6.03;;;3.60;;
43431;SDS011;40365;41.866;21.942;2022-07-06T12:55:26;5.22;;;3.15;;
43431;SDS011;40365;41.866;21.942;2022-07-06T12:57:53;5.45;;;3.40;;
43431;SDS011;40365;41.866;21.942;2022-07-06T13:00:19;6.28;;;3.50;;
43431;SDS011;40365;41.866;21.942;2022-07-06T13:02:47;7.97;;;3.60;;
43431;SDS011;40365;41.866;21.942;2022-07-06T13:05:14;5.38;;;3.90;;
43431;SDS011;40365;41.866;21.942;2022-07-06T13:07:44;7.05;;;3.45;;
43431;SDS011;40365;41.866;21.942;2022-07-06T13:10:12;6.60;;;3.72;;
43431;SDS011;40365;41.866;21.942;2022-07-06T13:12:38;9.82;;;3.97;;
43431;SDS011;40365;41.866;21.942;2022-07-06T13:15:06;6.00;;;3.88;;
43431;SDS011;40365;41.866;21.942;2022-07-06T13:17:32;6.07;;;3.78;;
43431;SDS011;40365;41.866;21.942;2022-07-06T13:19:58;5.53;;;3.50;;
43431;SDS011;40365;41.866;21.942;2022-07-06T13:22:25;5.97;;;3.53;;
43431;SDS011;40365;41.866;21.942;2022-07-06T13:24:51;5.10;;;3.20;;
43431;SDS011;40365;41.866;21.942;2022-07-06T13:27:17;6.53;;;3.40;;
43431;SDS011;40365;41.866;21.942;2022-07-06T13:29:43;8.38;;;3.45;;
43431;SDS011;40365;41.866;21.942;2022-07-06T13:32:09;6.35;;;3.50;;
43431;SDS011;40365;41.866;21.942;2022-07-06T13:34:35;6.40;;;3.40;;
43431;SDS011;40365;41.866;21.942;2022-07-06T13:37:02;4.85;;;3.28;;
43431;SDS011;40365;41.866;21.942;2022-07-06T13:39:28;5.18;;;3.33;;
43431;SDS011;40365;41.866;21.942;2022-07-06T13:41:55;4.63;;;3.28;;
43431;SDS011;40365;41.866;21.942;2022-07-06T13:44:21;4.68;;;3.25;;
43431;SDS011;40365;41.866;21.942;2022-07-06T13:46:47;6.07;;;3.28;;
43431;SDS011;40365;41.866;21.942;2022-07-06T13:49:13;8.52;;;3.50;;
43431;SDS011;40365;41.866;21.942;2022-07-06T13:51:40;6.95;;;3.33;;
43431;SDS011;40365;41.866;21.942;2022-07-06T13:54:06;6.47;;;2.92;;
43431;SDS011;40365;41.866;21.942;2022-07-06T13:56:32;6.43;;;3.45;;
43431;SDS011;40365;41.866;21.942;2022-07-06T13:58:58;4.70;;;3.17;;
43431;SDS011;40365;41.866;21.942;2022-07-06T14:01:25;5.90;;;3.28;;
43431;SDS011;40365;41.866;21.942;2022-07-06T14:03:51;5.28;;;2.90;;
43431;SDS011;40365;41.866;21.942;2022-07-06T14:06:18;5.35;;;2.80;;
43431;SDS011;40365;41.866;21.942;2022-07-06T14:08:45;5.82;;;3.13;;
43431;SDS011;40365;41.866;21.942;2022-07-06T14:11:11;6.55;;;3.60;;
43431;SDS011;40365;41.866;21.942;2022-07-06T14:13:37;5.82;;;3.13;;
43431;SDS011;40365;41.866;21.942;2022-07-06T14:16:04;3.85;;;2.63;;
43431;SDS011;40365;41.866;21.942;2022-07-06T14:18:30;6.03;;;2.85;;
43431;SDS011;40365;41.866;21.942;2022-07-06T14:20:56;4.03;;;2.40;;
43431;SDS011;40365;41.866;21.942;2022-07-06T14:23:23;5.35;;;2.58;;
43431;SDS011;40365;41.866;21.942;2022-07-06T14:25:49;4.03;;;2.90;;
43431;SDS011;40365;41.866;21.942;2022-07-06T14:28:16;4.88;;;2.40;;
43431;SDS011;40365;41.866;21.942;2022-07-06T14:30:42;4.32;;;3.13;;
43431;SDS011;40365;41.866;21.942;2022-07-06T14:33:12;3.60;;;2.42;;
43431;SDS011;40365;41.866;21.942;2022-07-06T14:35:48;4.75;;;2.95;;
43431;SDS011;40365;41.866;21.942;2022-07-06T14:38:16;5.80;;;2.95;;
43431;SDS011;40365;41.866;21.942;2022-07-06T14:40:42;5.20;;;2.50;;
43431;SDS011;40365;41.866;21.942;2022-07-06T14:43:09;4.25;;;2.80;;
43431;SDS011;40365;41.866;21.942;2022-07-06T14:45:35;6.35;;;3.35;;
43431;SDS011;40365;41.866;21.942;2022-07-06T14:48:01;3.63;;;2.65;;
43431;SDS011;40365;41.866;21.942;2022-07-06T14:50:27;5.90;;;2.58;;
43431;SDS011;40365;41.866;21.942;2022-07-06T14:52:54;4.65;;;2.78;;
43431;SDS011;40365;41.866;21.942;2022-07-06T14:55:20;8.10;;;2.90;;
43431;SDS011;40365;41.866;21.942;2022-07-06T14:57:47;4.13;;;2.97;;
43431;SDS011;40365;41.866;21.942;2022-07-06T15:00:14;5.90;;;3.10;;
43431;SDS011;40365;41.866;21.942;2022-07-06T15:02:40;5.68;;;3.03;;
43431;SDS011;40365;41.866;21.942;2022-07-06T15:05:07;3.75;;;2.70;;
43431;SDS011;40365;41.866;21.942;2022-07-06T15:07:33;7.15;;;5.10;;
43431;SDS011;40365;41.866;21.942;2022-07-06T15:10:00;3.60;;;2.90;;
43431;SDS011;40365;41.866;21.942;2022-07-06T15:12:26;4.47;;;3.30;;
43431;SDS011;40365;41.866;21.942;2022-07-06T15:14:52;5.07;;;3.58;;
43431;SDS011;40365;41.866;21.942;2022-07-06T15:17:18;9.80;;;3.90;;
43431;SDS011;40365;41.866;21.942;2022-07-06T15:19:44;5.57;;;3.58;;
43431;SDS011;40365;41.866;21.942;2022-07-06T15:22:11;4.93;;;3.70;;
43431;SDS011;40365;41.866;21.942;2022-07-06T15:24:37;5.55;;;3.63;;
43431;SDS011;40365;41.866;21.942;2022-07-06T15:27:04;4.78;;;3.47;;
43431;SDS011;40365;41.866;21.942;2022-07-06T15:29:30;6.35;;;4.05;;
43431;SDS011;40365;41.866;21.942;2022-07-06T15:31:56;6.32;;;4.00;;
43431;SDS011;40365;41.866;21.942;2022-07-06T15:34:23;4.25;;;3.15;;
43431;SDS011;40365;41.866;21.942;2022-07-06T15:36:49;5.18;;;3.58;;
43431;SDS011;40365;41.866;21.942;2022-07-06T15:39:15;5.63;;;3.78;;
43431;SDS011;40365;41.866;21.942;2022-07-06T15:41:41;7.15;;;4.22;;
43431;SDS011;40365;41.866;21.942;2022-07-06T15:44:08;6.32;;;3.88;;
43431;SDS011;40365;41.866;21.942;2022-07-06T15:46:34;7.53;;;4.00;;
43431;SDS011;40365;41.866;21.942;2022-07-06T15:49:00;6.40;;;3.85;;
43431;SDS011;40365;41.866;21.942;2022-07-06T15:51:26;6.18;;;3.47;;
43431;SDS011;40365;41.866;21.942;2022-07-06T15:53:52;5.05;;;3.22;;
43431;SDS011;40365;41.866;21.942;2022-07-06T15:56:19;5.45;;;3.65;;
43431;SDS011;40365;41.866;21.942;2022-07-06T15:58:45;4.82;;;2.85;;
43431;SDS011;40365;41.866;21.942;2022-07-06T16:01:12;4.15;;;3.10;;
43431;SDS011;40365;41.866;21.942;2022-07-06T16:03:38;5.50;;;3.05;;
43431;SDS011;40365;41.866;21.942;2022-07-06T16:06:05;4.57;;;2.90;;
43431;SDS011;40365;41.866;21.942;2022-07-06T16:08:31;4.25;;;2.92;;
43431;SDS011;40365;41.866;21.942;2022-07-06T16:10:58;5.60;;;3.72;;
43431;SDS011;40365;41.866;21.942;2022-07-06T16:13:24;4.28;;;2.92;;
43431;SDS011;40365;41.866;21.942;2022-07-06T16:15:50;6.63;;;3.38;;
43431;SDS011;40365;41.866;21.942;2022-07-06T16:18:16;3.95;;;3.00;;
43431;SDS011;40365;41.866;21.942;2022-07-06T16:20:42;6.00;;;3.08;;
43431;SDS011;40365;41.866;21.942;2022-07-06T16:23:09;4.43;;;3.20;;
43431;SDS011;40365;41.866;21.942;2022-07-06T16:25:35;4.63;;;3.03;;
43431;SDS011;40365;41.866;21.942;2022-07-06T16:28:01;4.03;;;2.88;;
43431;SDS011;40365;41.866;21.942;2022-07-06T16:30:27;4.47;;;2.80;;
43431;SDS011;40365;41.866;21.942;2022-07-06T16:32:53;6.22;;;3.78;;
43431;SDS011;40365;41.866;21.942;2022-07-06T16:35:20;5.22;;;3.25;;
43431;SDS011;40365;41.866;21.942;2022-07-06T16:37:48;4.35;;;3.05;;
43431;SDS011;40365;41.866;21.942;2022-07-06T16:40:14;4.38;;;2.63;;
43431;SDS011;40365;41.866;21.942;2022-07-06T16:42:40;5.32;;;2.78;;
43431;SDS011;40365;41.866;21.942;2022-07-06T16:45:06;4.85;;;2.60;;
43431;SDS011;40365;41.866;21.942;2022-07-06T16:47:33;3.50;;;2.85;;